sensor_id;sensor_type;location;lat;lon;timestamp;P1;durP1;ratioP1;P2;durP2;ratioP2
24743;SDS011;12844;52.110;5.548;2023-03-30T04:06:59;3.17;;;1.45;;
24743;SDS011;12844;52.110;5.548;2023-03-30T04:09:25;3.05;;;1.33;;
24743;SDS011;12844;52.110;5.548;2023-03-30T04:11:50;3.08;;;1.45;;
24743;SDS011;12844;52.110;5.548;2023-03-30T04:14:16;2.75;;;1.38;;
24743;SDS011;12844;52.110;5.548;2023-03-30T04:16:41;2.90;;;1.40;;
24743;SDS011;12844;52.110;5.548;2023-03-30T04:19:07;4.68;;;1.23;;
24743;SDS011;12844;52.110;5.548;2023-03-30T04:21:36;3.10;;;1.20;;
24743;SDS011;12844;52.110;5.548;2023-03-30T04:24:05;2.50;;;1.05;;
24743;SDS011;12844;52.110;5.548;2023-03-30T04:26:31;2.95;;;1.50;;
24743;SDS011;12844;52.110;5.548;2023-03-30T04:28:57;2.55;;;1.20;;
24743;SDS011;12844;52.110;5.548;2023-03-30T13:14:45;11.07;;;2.55;;
24743;SDS011;12844;52.110;5.548;2023-03-30T13:17:13;7.93;;;1.80;;
24743;SDS011;12844;52.110;5.548;2023-03-30T13:19:45;9.75;;;2.80;;
24743;SDS011;12844;52.110;5.548;2023-03-30T13:22:28;15.27;;;2.55;;
24743;SDS011;12844;52.110;5.548;2023-03-30T13:27:50;8.63;;;2.05;;
24743;SDS011;12844;52.110;5.548;2023-03-30T13:30:20;10.43;;;2.45;;
24743;SDS011;12844;52.110;5.548;2023-03-30T13:33:04;11.10;;;2.63;;
24743;SDS011;12844;52.110;5.548;2023-03-30T13:41:10;7.60;;;2.10;;
24743;SDS011;12844;52.110;5.548;2023-03-30T13:49:47;10.52;;;2.10;;
24743;SDS011;12844;52.110;5.548;2023-03-30T13:52:32;15.45;;;2.60;;
24743;SDS011;12844;52.110;5.548;2023-03-30T13:55:01;9.65;;;2.05;;
24743;SDS011;12844;52.110;5.548;2023-03-30T13:57:35;13.30;;;2.47;;
24743;SDS011;12844;52.110;5.548;2023-03-30T14:00:28;7.88;;;1.85;;
24743;SDS011;12844;52.110;5.548;2023-03-30T14:02:57;9.80;;;2.67;;
24743;SDS011;12844;52.110;5.548;2023-03-30T14:05:25;14.57;;;2.72;;
24743;SDS011;12844;52.110;5.548;2023-03-30T14:08:00;7.30;;;1.77;;
24743;SDS011;12844;52.110;5.548;2023-03-30T14:10:28;12.50;;;2.70;;
24743;SDS011;12844;52.110;5.548;2023-03-30T14:12:54;9.13;;;2.50;;
24743;SDS011;12844;52.110;5.548;2023-03-30T14:15:22;11.57;;;2.55;;
24743;SDS011;12844;52.110;5.548;2023-03-30T14:17:55;9.20;;;2.20;;
24743;SDS011;12844;52.110;5.548;2023-03-30T14:22:55;8.18;;;2.10;;
24743;SDS011;12844;52.110;5.548;2023-03-30T14:25:26;6.50;;;1.92;;
24743;SDS011;12844;52.110;5.548;2023-03-30T14:27:56;7.32;;;2.03;;
24743;SDS011;12844;52.110;5.548;2023-03-30T14:30:27;11.38;;;2.22;;
24743;SDS011;12844;52.110;5.548;2023-03-30T14:33:06;10.32;;;2.30;;
24743;SDS011;12844;52.110;5.548;2023-03-30T14:38:15;10.40;;;2.30;;
24743;SDS011;12844;52.110;5.548;2023-03-30T14:40:46;6.88;;;2.28;;
24743;SDS011;12844;52.110;5.548;2023-03-30T14:43:13;7.53;;;2.08;;
24743;SDS011;12844;52.110;5.548;2023-03-30T14:45:42;9.25;;;1.92;;
24743;SDS011;12844;52.110;5.548;2023-03-30T14:48:09;8.77;;;1.77;;
24743;SDS011;12844;52.110;5.548;2023-03-30T14:50:47;9.50;;;2.58;;
24743;SDS011;12844;52.110;5.548;2023-03-30T14:53:13;9.07;;;2.17;;
24743;SDS011;12844;52.110;5.548;2023-03-30T14:55:40;6.60;;;2.10;;
24743;SDS011;12844;52.110;5.548;2023-03-30T14:58:05;8.38;;;2.15;;
24743;SDS011;12844;52.110;5.548;2023-03-30T15:00:37;9.38;;;2.20;;
24743;SDS011;12844;52.110;5.548;2023-03-30T15:03:03;10.35;;;2.13;;
24743;SDS011;12844;52.110;5.548;2023-03-30T15:05:31;10.77;;;2.58;;
24743;SDS011;12844;52.110;5.548;2023-03-30T15:08:01;7.47;;;2.13;;
24743;SDS011;12844;52.110;5.548;2023-03-30T15:10:41;10.77;;;2.63;;
24743;SDS011;12844;52.110;5.548;2023-03-30T15:13:09;11.77;;;2.13;;
24743;SDS011;12844;52.110;5.548;2023-03-30T15:15:49;7.57;;;1.77;;
24743;SDS011;12844;52.110;5.548;2023-03-30T15:18:18;9.10;;;1.95;;
24743;SDS011;12844;52.110;5.548;2023-03-30T15:20:47;6.57;;;1.50;;
24743;SDS011;12844;52.110;5.548;2023-03-30T15:23:13;9.23;;;2.10;;
24743;SDS011;12844;52.110;5.548;2023-03-30T15:25:40;8.73;;;2.17;;
24743;SDS011;12844;52.110;5.548;2023-03-30T15:28:07;9.50;;;2.05;;
24743;SDS011;12844;52.110;5.548;2023-03-30T15:30:43;10.23;;;1.90;;
24743;SDS011;12844;52.110;5.548;2023-03-30T15:33:19;8.63;;;1.70;;
24743;SDS011;12844;52.110;5.548;2023-03-30T15:35:52;7.00;;;2.13;;
24743;SDS011;12844;52.110;5.548;2023-03-30T15:38:26;7.95;;;1.80;;
24743;SDS011;12844;52.110;5.548;2023-03-30T15:40:54;9.45;;;2.20;;
24743;SDS011;12844;52.110;5.548;2023-03-30T15:48:40;8.85;;;1.90;;
24743;SDS011;12844;52.110;5.548;2023-03-30T15:51:20;6.75;;;1.67;;
24743;SDS011;12844;52.110;5.548;2023-03-30T15:53:50;8.32;;;2.05;;
24743;SDS011;12844;52.110;5.548;2023-03-30T15:59:09;8.35;;;2.05;;
24743;SDS011;12844;52.110;5.548;2023-03-30T16:02:00;9.38;;;1.63;;
24743;SDS011;12844;52.110;5.548;2023-03-30T16:04:29;9.32;;;2.20;;
24743;SDS011;12844;52.110;5.548;2023-03-30T16:06:56;8.65;;;1.95;;
24743;SDS011;12844;52.110;5.548;2023-03-30T16:09:21;5.53;;;1.35;;
24743;SDS011;12844;52.110;5.548;2023-03-30T16:11:47;6.47;;;2.15;;
24743;SDS011;12844;52.110;5.548;2023-03-30T16:14:14;9.30;;;1.98;;
24743;SDS011;12844;52.110;5.548;2023-03-30T16:16:43;7.50;;;1.90;;
24743;SDS011;12844;52.110;5.548;2023-03-30T16:19:10;4.78;;;1.55;;
24743;SDS011;12844;52.110;5.548;2023-03-30T16:21:37;8.57;;;1.90;;
24743;SDS011;12844;52.110;5.548;2023-03-30T16:24:02;11.05;;;1.90;;
24743;SDS011;12844;52.110;5.548;2023-03-30T16:26:28;7.57;;;1.58;;
24743;SDS011;12844;52.110;5.548;2023-03-30T16:28:54;8.60;;;1.80;;
24743;SDS011;12844;52.110;5.548;2023-03-30T16:31:20;4.25;;;1.60;;
24743;SDS011;12844;52.110;5.548;2023-03-30T16:33:47;7.10;;;1.58;;
24743;SDS011;12844;52.110;5.548;2023-03-30T16:36:13;8.73;;;1.80;;
24743;SDS011;12844;52.110;5.548;2023-03-30T16:38:40;6.57;;;1.75;;
24743;SDS011;12844;52.110;5.548;2023-03-30T16:41:08;8.48;;;1.75;;
24743;SDS011;12844;52.110;5.548;2023-03-30T16:43:36;9.43;;;2.03;;
24743;SDS011;12844;52.110;5.548;2023-03-30T16:46:02;7.97;;;1.75;;
24743;SDS011;12844;52.110;5.548;2023-03-30T16:48:27;6.82;;;1.50;;
24743;SDS011;12844;52.110;5.548;2023-03-30T16:50:53;6.85;;;1.70;;
24743;SDS011;12844;52.110;5.548;2023-03-30T16:53:20;10.50;;;1.90;;
24743;SDS011;12844;52.110;5.548;2023-03-30T16:55:47;6.53;;;1.60;;
24743;SDS011;12844;52.110;5.548;2023-03-30T16:58:13;6.15;;;1.60;;
24743;SDS011;12844;52.110;5.548;2023-03-30T17:00:49;6.05;;;1.52;;
24743;SDS011;12844;52.110;5.548;2023-03-30T17:03:17;6.35;;;1.20;;
24743;SDS011;12844;52.110;5.548;2023-03-30T17:05:44;7.38;;;2.15;;
24743;SDS011;12844;52.110;5.548;2023-03-30T17:08:33;10.45;;;1.80;;
24743;SDS011;12844;52.110;5.548;2023-03-30T17:10:58;8.25;;;1.42;;
24743;SDS011;12844;52.110;5.548;2023-03-30T17:13:25;6.88;;;1.35;;
24743;SDS011;12844;52.110;5.548;2023-03-30T17:15:51;7.38;;;1.35;;
24743;SDS011;12844;52.110;5.548;2023-03-30T17:18:18;6.50;;;1.50;;
24743;SDS011;12844;52.110;5.548;2023-03-30T17:20:46;6.65;;;1.40;;
24743;SDS011;12844;52.110;5.548;2023-03-30T17:23:17;6.80;;;1.20;;
24743;SDS011;12844;52.110;5.548;2023-03-30T17:25:44;7.63;;;1.70;;
24743;SDS011;12844;52.110;5.548;2023-03-30T17:28:15;6.72;;;1.80;;
24743;SDS011;12844;52.110;5.548;2023-03-30T17:30:47;5.93;;;1.65;;
24743;SDS011;12844;52.110;5.548;2023-03-30T17:33:15;7.65;;;1.40;;
24743;SDS011;12844;52.110;5.548;2023-03-30T17:35:41;5.88;;;1.40;;
24743;SDS011;12844;52.110;5.548;2023-03-30T17:38:10;6.57;;;1.48;;
24743;SDS011;12844;52.110;5.548;2023-03-30T17:40:36;7.20;;;1.27;;
24743;SDS011;12844;52.110;5.548;2023-03-30T17:43:03;8.23;;;1.83;;
24743;SDS011;12844;52.110;5.548;2023-03-30T17:45:31;8.13;;;1.67;;
24743;SDS011;12844;52.110;5.548;2023-03-30T17:47:58;6.38;;;1.50;;
24743;SDS011;12844;52.110;5.548;2023-03-30T17:50:26;5.10;;;1.25;;
24743;SDS011;12844;52.110;5.548;2023-03-30T17:52:54;6.80;;;1.50;;
24743;SDS011;12844;52.110;5.548;2023-03-30T17:55:21;10.23;;;1.58;;
24743;SDS011;12844;52.110;5.548;2023-03-30T17:57:48;6.40;;;1.33;;
24743;SDS011;12844;52.110;5.548;2023-03-30T18:00:35;8.38;;;1.80;;
24743;SDS011;12844;52.110;5.548;2023-03-30T18:03:00;5.60;;;1.83;;
24743;SDS011;12844;52.110;5.548;2023-03-30T18:05:27;5.15;;;1.20;;
24743;SDS011;12844;52.110;5.548;2023-03-30T18:07:54;6.25;;;1.27;;
24743;SDS011;12844;52.110;5.548;2023-03-30T18:10:29;5.28;;;1.25;;
24743;SDS011;12844;52.110;5.548;2023-03-30T18:12:59;6.35;;;1.40;;
24743;SDS011;12844;52.110;5.548;2023-03-30T18:15:25;5.90;;;1.35;;
24743;SDS011;12844;52.110;5.548;2023-03-30T18:17:54;10.23;;;1.65;;
24743;SDS011;12844;52.110;5.548;2023-03-30T18:22:47;5.03;;;1.15;;
24743;SDS011;12844;52.110;5.548;2023-03-30T18:25:13;9.77;;;1.85;;
24743;SDS011;12844;52.110;5.548;2023-03-30T18:27:39;5.57;;;1.40;;
24743;SDS011;12844;52.110;5.548;2023-03-30T18:30:12;8.60;;;1.52;;
24743;SDS011;12844;52.110;5.548;2023-03-30T18:32:45;6.35;;;1.67;;
24743;SDS011;12844;52.110;5.548;2023-03-30T18:35:11;8.43;;;1.88;;
24743;SDS011;12844;52.110;5.548;2023-03-30T18:37:37;6.57;;;1.75;;
24743;SDS011;12844;52.110;5.548;2023-03-30T18:40:06;6.75;;;2.08;;
24743;SDS011;12844;52.110;5.548;2023-03-30T18:42:40;5.63;;;1.35;;
24743;SDS011;12844;52.110;5.548;2023-03-30T18:45:10;9.25;;;2.60;;
24743;SDS011;12844;52.110;5.548;2023-03-30T18:47:40;6.30;;;1.80;;
24743;SDS011;12844;52.110;5.548;2023-03-30T18:50:17;10.00;;;1.90;;
24743;SDS011;12844;52.110;5.548;2023-03-30T18:52:43;7.18;;;1.67;;
24743;SDS011;12844;52.110;5.548;2023-03-30T18:55:09;5.65;;;1.58;;
24743;SDS011;12844;52.110;5.548;2023-03-30T18:57:36;8.60;;;1.92;;
24743;SDS011;12844;52.110;5.548;2023-03-30T19:00:02;6.20;;;1.60;;
24743;SDS011;12844;52.110;5.548;2023-03-30T19:02:36;15.45;;;2.03;;
24743;SDS011;12844;52.110;5.548;2023-03-30T19:05:01;8.98;;;2.30;;
24743;SDS011;12844;52.110;5.548;2023-03-30T19:07:27;9.07;;;2.03;;
24743;SDS011;12844;52.110;5.548;2023-03-30T19:09:52;6.80;;;1.67;;
24743;SDS011;12844;52.110;5.548;2023-03-30T19:12:18;4.75;;;1.50;;
24743;SDS011;12844;52.110;5.548;2023-03-30T19:14:43;9.52;;;2.17;;
24743;SDS011;12844;52.110;5.548;2023-03-30T19:17:09;7.13;;;1.70;;
24743;SDS011;12844;52.110;5.548;2023-03-30T19:19:35;5.55;;;1.70;;
24743;SDS011;12844;52.110;5.548;2023-03-30T19:22:00;7.65;;;1.80;;
24743;SDS011;12844;52.110;5.548;2023-03-30T19:24:25;8.55;;;1.73;;
24743;SDS011;12844;52.110;5.548;2023-03-30T19:26:51;5.57;;;1.58;;
24743;SDS011;12844;52.110;5.548;2023-03-30T19:29:16;8.70;;;1.80;;
24743;SDS011;12844;52.110;5.548;2023-03-30T19:31:42;6.38;;;2.00;;
24743;SDS011;12844;52.110;5.548;2023-03-30T19:34:07;7.72;;;2.00;;
24743;SDS011;12844;52.110;5.548;2023-03-30T19:36:33;7.32;;;1.70;;
24743;SDS011;12844;52.110;5.548;2023-03-30T19:38:58;10.68;;;1.92;;
24743;SDS011;12844;52.110;5.548;2023-03-30T19:41:24;7.95;;;1.95;;
24743;SDS011;12844;52.110;5.548;2023-03-30T19:43:50;7.80;;;1.95;;
24743;SDS011;12844;52.110;5.548;2023-03-30T19:46:16;6.32;;;1.67;;
24743;SDS011;12844;52.110;5.548;2023-03-30T19:48:42;9.07;;;1.90;;
24743;SDS011;12844;52.110;5.548;2023-03-30T19:51:07;5.47;;;1.60;;
24743;SDS011;12844;52.110;5.548;2023-03-30T19:53:33;6.47;;;1.55;;
24743;SDS011;12844;52.110;5.548;2023-03-30T19:55:59;7.43;;;1.90;;
24743;SDS011;12844;52.110;5.548;2023-03-30T19:58:24;7.40;;;1.50;;
24743;SDS011;12844;52.110;5.548;2023-03-30T20:00:50;4.93;;;1.70;;
24743;SDS011;12844;52.110;5.548;2023-03-30T20:03:15;7.35;;;2.10;;
24743;SDS011;12844;52.110;5.548;2023-03-30T20:05:47;6.97;;;1.50;;
24743;SDS011;12844;52.110;5.548;2023-03-30T20:08:13;5.03;;;1.60;;
24743;SDS011;12844;52.110;5.548;2023-03-30T20:10:45;5.85;;;1.42;;
24743;SDS011;12844;52.110;5.548;2023-03-30T20:13:11;6.18;;;1.60;;
24743;SDS011;12844;52.110;5.548;2023-03-30T20:15:37;6.50;;;1.67;;
24743;SDS011;12844;52.110;5.548;2023-03-30T20:18:02;6.05;;;1.83;;
24743;SDS011;12844;52.110;5.548;2023-03-30T20:20:28;7.00;;;1.63;;
24743;SDS011;12844;52.110;5.548;2023-03-30T20:22:56;5.22;;;1.38;;
24743;SDS011;12844;52.110;5.548;2023-03-30T20:25:21;6.60;;;1.83;;
24743;SDS011;12844;52.110;5.548;2023-03-30T20:27:47;3.50;;;1.23;;
24743;SDS011;12844;52.110;5.548;2023-03-30T20:30:13;4.70;;;1.40;;
24743;SDS011;12844;52.110;5.548;2023-03-30T20:32:40;4.93;;;1.55;;
24743;SDS011;12844;52.110;5.548;2023-03-30T20:35:06;4.20;;;1.40;;
24743;SDS011;12844;52.110;5.548;2023-03-30T20:37:32;6.07;;;1.50;;
24743;SDS011;12844;52.110;5.548;2023-03-30T20:39:58;8.85;;;2.30;;
24743;SDS011;12844;52.110;5.548;2023-03-30T20:42:26;5.95;;;1.52;;
24743;SDS011;12844;52.110;5.548;2023-03-30T20:44:52;5.15;;;1.60;;
24743;SDS011;12844;52.110;5.548;2023-03-30T20:47:19;6.00;;;1.30;;
24743;SDS011;12844;52.110;5.548;2023-03-30T20:49:49;5.88;;;1.70;;
24743;SDS011;12844;52.110;5.548;2023-03-30T20:52:17;8.75;;;1.50;;
24743;SDS011;12844;52.110;5.548;2023-03-30T20:54:43;10.82;;;1.65;;
24743;SDS011;12844;52.110;5.548;2023-03-30T20:57:09;8.45;;;1.70;;
24743;SDS011;12844;52.110;5.548;2023-03-30T20:59:35;8.10;;;1.48;;
24743;SDS011;12844;52.110;5.548;2023-03-30T21:02:00;5.70;;;1.50;;
24743;SDS011;12844;52.110;5.548;2023-03-30T21:04:27;7.88;;;1.60;;
24743;SDS011;12844;52.110;5.548;2023-03-30T21:06:53;11.73;;;2.25;;
24743;SDS011;12844;52.110;5.548;2023-03-30T21:09:18;8.80;;;1.60;;
24743;SDS011;12844;52.110;5.548;2023-03-30T21:11:44;4.82;;;1.50;;
24743;SDS011;12844;52.110;5.548;2023-03-30T21:14:11;7.22;;;1.50;;
24743;SDS011;12844;52.110;5.548;2023-03-30T21:16:37;8.77;;;1.65;;
24743;SDS011;12844;52.110;5.548;2023-03-30T21:19:05;5.80;;;1.52;;
24743;SDS011;12844;52.110;5.548;2023-03-30T21:21:31;8.93;;;1.50;;
24743;SDS011;12844;52.110;5.548;2023-03-30T21:24:01;3.95;;;1.50;;
24743;SDS011;12844;52.110;5.548;2023-03-30T21:26:30;6.55;;;1.50;;
24743;SDS011;12844;52.110;5.548;2023-03-30T21:28:56;3.45;;;1.08;;
24743;SDS011;12844;52.110;5.548;2023-03-30T21:31:22;5.00;;;1.30;;
24743;SDS011;12844;52.110;5.548;2023-03-30T21:33:48;4.20;;;1.30;;
24743;SDS011;12844;52.110;5.548;2023-03-30T21:36:14;7.28;;;1.50;;
24743;SDS011;12844;52.110;5.548;2023-03-30T21:38:39;7.68;;;1.48;;
24743;SDS011;12844;52.110;5.548;2023-03-30T21:41:06;6.10;;;1.55;;
24743;SDS011;12844;52.110;5.548;2023-03-30T21:43:36;5.38;;;1.20;;
24743;SDS011;12844;52.110;5.548;2023-03-30T21:46:07;6.40;;;1.25;;
24743;SDS011;12844;52.110;5.548;2023-03-30T21:48:44;5.95;;;1.52;;
24743;SDS011;12844;52.110;5.548;2023-03-30T21:53:38;5.10;;;1.40;;
24743;SDS011;12844;52.110;5.548;2023-03-30T21:56:04;5.55;;;1.38;;
24743;SDS011;12844;52.110;5.548;2023-03-30T21:58:30;5.22;;;1.58;;
24743;SDS011;12844;52.110;5.548;2023-03-30T22:00:56;6.72;;;1.60;;
24743;SDS011;12844;52.110;5.548;2023-03-30T22:03:24;5.65;;;1.38;;
24743;SDS011;12844;52.110;5.548;2023-03-30T22:05:50;3.67;;;1.20;;
24743;SDS011;12844;52.110;5.548;2023-03-30T22:08:16;4.28;;;1.17;;
24743;SDS011;12844;52.110;5.548;2023-03-30T22:10:42;6.20;;;1.50;;
24743;SDS011;12844;52.110;5.548;2023-03-30T22:13:09;5.85;;;1.40;;
24743;SDS011;12844;52.110;5.548;2023-03-30T22:15:35;4.88;;;1.48;;
24743;SDS011;12844;52.110;5.548;2023-03-30T22:18:01;7.03;;;1.20;;
24743;SDS011;12844;52.110;5.548;2023-03-30T22:20:30;3.10;;;1.15;;
24743;SDS011;12844;52.110;5.548;2023-03-30T22:22:56;5.55;;;1.40;;
24743;SDS011;12844;52.110;5.548;2023-03-30T22:25:22;4.15;;;1.23;;
24743;SDS011;12844;52.110;5.548;2023-03-30T22:27:49;3.47;;;1.33;;
24743;SDS011;12844;52.110;5.548;2023-03-30T22:30:15;4.93;;;1.27;;
24743;SDS011;12844;52.110;5.548;2023-03-30T22:32:41;3.95;;;1.20;;
24743;SDS011;12844;52.110;5.548;2023-03-30T22:35:07;6.03;;;1.60;;
24743;SDS011;12844;52.110;5.548;2023-03-30T22:37:33;5.03;;;1.67;;
24743;SDS011;12844;52.110;5.548;2023-03-30T22:39:59;5.13;;;1.30;;
24743;SDS011;12844;52.110;5.548;2023-03-30T22:42:24;4.97;;;1.30;;
24743;SDS011;12844;52.110;5.548;2023-03-30T22:44:50;4.05;;;1.27;;
24743;SDS011;12844;52.110;5.548;2023-03-30T22:47:15;5.03;;;1.15;;
24743;SDS011;12844;52.110;5.548;2023-03-30T22:49:41;7.63;;;1.73;;
24743;SDS011;12844;52.110;5.548;2023-03-30T22:52:07;5.18;;;1.30;;
24743;SDS011;12844;52.110;5.548;2023-03-30T22:54:32;4.63;;;1.20;;
24743;SDS011;12844;52.110;5.548;2023-03-30T22:56:58;5.63;;;1.10;;
24743;SDS011;12844;52.110;5.548;2023-03-30T22:59:24;4.97;;;1.30;;
24743;SDS011;12844;52.110;5.548;2023-03-30T23:01:50;5.20;;;1.60;;
24743;SDS011;12844;52.110;5.548;2023-03-30T23:04:15;4.55;;;1.20;;
24743;SDS011;12844;52.110;5.548;2023-03-30T23:06:42;6.18;;;1.27;;
24743;SDS011;12844;52.110;5.548;2023-03-30T23:09:09;4.75;;;1.38;;
24743;SDS011;12844;52.110;5.548;2023-03-30T23:11:37;7.00;;;1.58;;
24743;SDS011;12844;52.110;5.548;2023-03-30T23:14:05;5.97;;;1.45;;
24743;SDS011;12844;52.110;5.548;2023-03-30T23:16:33;4.43;;;1.13;;
24743;SDS011;12844;52.110;5.548;2023-03-30T23:19:01;7.07;;;1.50;;
24743;SDS011;12844;52.110;5.548;2023-03-30T23:21:27;4.80;;;1.40;;
24743;SDS011;12844;52.110;5.548;2023-03-30T23:23:58;4.18;;;1.52;;
24743;SDS011;12844;52.110;5.548;2023-03-30T23:26:25;4.38;;;1.25;;
24743;SDS011;12844;52.110;5.548;2023-03-30T23:28:52;4.20;;;1.10;;
24743;SDS011;12844;52.110;5.548;2023-03-30T23:31:17;4.03;;;1.25;;
24743;SDS011;12844;52.110;5.548;2023-03-30T23:33:43;5.03;;;1.30;;
24743;SDS011;12844;52.110;5.548;2023-03-30T23:36:09;3.55;;;1.25;;
24743;SDS011;12844;52.110;5.548;2023-03-30T23:38:40;5.63;;;1.40;;
24743;SDS011;12844;52.110;5.548;2023-03-30T23:41:06;2.70;;;1.10;;
24743;SDS011;12844;52.110;5.548;2023-03-30T23:43:32;4.68;;;1.13;;
24743;SDS011;12844;52.110;5.548;2023-03-30T23:45:57;4.20;;;1.52;;
24743;SDS011;12844;52.110;5.548;2023-03-30T23:48:23;5.70;;;1.60;;
24743;SDS011;12844;52.110;5.548;2023-03-30T23:50:48;4.22;;;1.10;;
24743;SDS011;12844;52.110;5.548;2023-03-30T23:53:14;4.57;;;1.10;;
24743;SDS011;12844;52.110;5.548;2023-03-30T23:55:40;3.97;;;1.33;;
24743;SDS011;12844;52.110;5.548;2023-03-30T23:58:05;4.43;;;1.30;;
